sensor_id;sensor_type;location;lat;lon;timestamp;P1;durP1;ratioP1;P2;durP2;ratioP2
38487;SDS011;57384;51.986;4.458;2023-09-19T00:00:07;1.63;;;1.52;;
38487;SDS011;57384;51.986;4.458;2023-09-19T00:02:34;1.48;;;1.38;;
38487;SDS011;57384;51.986;4.458;2023-09-19T00:05:04;1.40;;;1.30;;
38487;SDS011;57384;51.986;4.458;2023-09-19T00:07:33;5.13;;;2.13;;
38487;SDS011;57384;51.986;4.458;2023-09-19T00:10:00;1.50;;;1.40;;
38487;SDS011;57384;51.986;4.458;2023-09-19T00:12:27;2.90;;;2.37;;
38487;SDS011;57384;51.986;4.458;2023-09-19T00:14:53;1.33;;;1.23;;
38487;SDS011;57384;51.986;4.458;2023-09-19T00:17:20;1.60;;;1.50;;
38487;SDS011;57384;51.986;4.458;2023-09-19T00:19:48;1.27;;;1.17;;
38487;SDS011;57384;51.986;4.458;2023-09-19T00:22:15;1.40;;;1.30;;
38487;SDS011;57384;51.986;4.458;2023-09-19T00:24:41;5.57;;;2.70;;
38487;SDS011;57384;51.986;4.458;2023-09-19T00:27:08;1.50;;;1.40;;
38487;SDS011;57384;51.986;4.458;2023-09-19T00:29:34;3.50;;;1.63;;
38487;SDS011;57384;51.986;4.458;2023-09-19T00:32:02;1.55;;;1.45;;
38487;SDS011;57384;51.986;4.458;2023-09-19T00:34:33;1.52;;;1.42;;
38487;SDS011;57384;51.986;4.458;2023-09-19T00:37:00;2.47;;;2.25;;
38487;SDS011;57384;51.986;4.458;2023-09-19T00:39:26;1.42;;;1.33;;
38487;SDS011;57384;51.986;4.458;2023-09-19T00:41:53;1.37;;;1.27;;
38487;SDS011;57384;51.986;4.458;2023-09-19T00:44:19;1.67;;;1.57;;
38487;SDS011;57384;51.986;4.458;2023-09-19T00:46:46;2.80;;;2.70;;
38487;SDS011;57384;51.986;4.458;2023-09-19T00:49:13;2.03;;;1.93;;
38487;SDS011;57384;51.986;4.458;2023-09-19T00:51:40;3.47;;;3.15;;
38487;SDS011;57384;51.986;4.458;2023-09-19T00:54:06;2.88;;;2.53;;
38487;SDS011;57384;51.986;4.458;2023-09-19T00:59:00;1.83;;;1.73;;
38487;SDS011;57384;51.986;4.458;2023-09-19T01:01:27;1.63;;;1.52;;
38487;SDS011;57384;51.986;4.458;2023-09-19T01:03:57;1.80;;;1.70;;
38487;SDS011;57384;51.986;4.458;2023-09-19T01:06:24;3.15;;;2.85;;
38487;SDS011;57384;51.986;4.458;2023-09-19T01:08:50;2.13;;;2.03;;
38487;SDS011;57384;51.986;4.458;2023-09-19T01:11:28;3.13;;;2.92;;
38487;SDS011;57384;51.986;4.458;2023-09-19T01:30:24;2.55;;;2.45;;
38487;SDS011;57384;51.986;4.458;2023-09-19T01:32:56;7.43;;;3.38;;
38487;SDS011;57384;51.986;4.458;2023-09-19T01:35:24;2.83;;;2.72;;
38487;SDS011;57384;51.986;4.458;2023-09-19T01:37:50;2.60;;;2.50;;
38487;SDS011;57384;51.986;4.458;2023-09-19T01:40:17;3.63;;;3.42;;
38487;SDS011;57384;51.986;4.458;2023-09-19T01:45:51;6.57;;;3.72;;
38487;SDS011;57384;51.986;4.458;2023-09-19T01:51:18;3.55;;;3.25;;
38487;SDS011;57384;51.986;4.458;2023-09-19T01:53:51;2.30;;;2.20;;
38487;SDS011;57384;51.986;4.458;2023-09-19T01:56:25;2.65;;;2.53;;
38487;SDS011;57384;51.986;4.458;2023-09-19T01:59:16;2.50;;;2.40;;
38487;SDS011;57384;51.986;4.458;2023-09-19T02:01:50;2.58;;;2.47;;
38487;SDS011;57384;51.986;4.458;2023-09-19T02:04:19;2.35;;;2.25;;
38487;SDS011;57384;51.986;4.458;2023-09-19T02:06:45;2.10;;;2.00;;
38487;SDS011;57384;51.986;4.458;2023-09-19T02:09:12;2.07;;;1.93;;
38487;SDS011;57384;51.986;4.458;2023-09-19T02:14:06;2.20;;;2.10;;
38487;SDS011;57384;51.986;4.458;2023-09-19T02:19:00;3.08;;;2.88;;
38487;SDS011;57384;51.986;4.458;2023-09-19T02:21:27;3.43;;;3.10;;
38487;SDS011;57384;51.986;4.458;2023-09-19T02:23:53;2.30;;;2.20;;
38487;SDS011;57384;51.986;4.458;2023-09-19T02:26:20;2.10;;;2.00;;
38487;SDS011;57384;51.986;4.458;2023-09-19T02:28:49;2.55;;;2.45;;
38487;SDS011;57384;51.986;4.458;2023-09-19T02:31:16;2.45;;;2.35;;
38487;SDS011;57384;51.986;4.458;2023-09-19T02:33:42;5.60;;;3.63;;
38487;SDS011;57384;51.986;4.458;2023-09-19T02:36:09;3.73;;;3.53;;
38487;SDS011;57384;51.986;4.458;2023-09-19T02:38:38;2.43;;;2.33;;
38487;SDS011;57384;51.986;4.458;2023-09-19T02:41:05;2.28;;;2.15;;
38487;SDS011;57384;51.986;4.458;2023-09-19T02:43:32;2.77;;;2.67;;
38487;SDS011;57384;51.986;4.458;2023-09-19T02:45:58;2.20;;;2.10;;
38487;SDS011;57384;51.986;4.458;2023-09-19T02:48:25;2.33;;;2.23;;
38487;SDS011;57384;51.986;4.458;2023-09-19T02:50:52;6.15;;;3.80;;
38487;SDS011;57384;51.986;4.458;2023-09-19T02:53:18;3.60;;;3.30;;
38487;SDS011;57384;51.986;4.458;2023-09-19T02:55:46;3.13;;;2.92;;
38487;SDS011;57384;51.986;4.458;2023-09-19T02:58:13;2.58;;;2.47;;
38487;SDS011;57384;51.986;4.458;2023-09-19T03:00:39;3.73;;;3.53;;
38487;SDS011;57384;51.986;4.458;2023-09-19T03:03:06;2.45;;;2.35;;
38487;SDS011;57384;51.986;4.458;2023-09-19T03:05:33;2.92;;;2.83;;
38487;SDS011;57384;51.986;4.458;2023-09-19T03:08:00;4.30;;;2.78;;
38487;SDS011;57384;51.986;4.458;2023-09-19T03:10:27;9.00;;;3.28;;
38487;SDS011;57384;51.986;4.458;2023-09-19T03:12:54;2.10;;;2.00;;
38487;SDS011;57384;51.986;4.458;2023-09-19T03:15:21;2.90;;;2.80;;
38487;SDS011;57384;51.986;4.458;2023-09-19T03:17:48;2.50;;;2.40;;
38487;SDS011;57384;51.986;4.458;2023-09-19T03:20:18;2.70;;;2.60;;
38487;SDS011;57384;51.986;4.458;2023-09-19T03:22:45;4.50;;;3.10;;
38487;SDS011;57384;51.986;4.458;2023-09-19T03:25:11;2.83;;;2.73;;
38487;SDS011;57384;51.986;4.458;2023-09-19T03:27:38;2.47;;;2.38;;
38487;SDS011;57384;51.986;4.458;2023-09-19T03:30:05;2.30;;;2.20;;
38487;SDS011;57384;51.986;4.458;2023-09-19T03:32:43;2.60;;;2.50;;
38487;SDS011;57384;51.986;4.458;2023-09-19T03:35:10;2.72;;;2.63;;
38487;SDS011;57384;51.986;4.458;2023-09-19T03:37:40;2.93;;;2.73;;
38487;SDS011;57384;51.986;4.458;2023-09-19T03:40:10;2.63;;;2.53;;
38487;SDS011;57384;51.986;4.458;2023-09-19T03:42:38;2.88;;;2.67;;
38487;SDS011;57384;51.986;4.458;2023-09-19T03:45:06;1.95;;;1.85;;
38487;SDS011;57384;51.986;4.458;2023-09-19T03:47:33;2.35;;;2.25;;
38487;SDS011;57384;51.986;4.458;2023-09-19T03:50:06;2.50;;;2.40;;
38487;SDS011;57384;51.986;4.458;2023-09-19T03:52:33;3.17;;;3.08;;
38487;SDS011;57384;51.986;4.458;2023-09-19T03:55:00;2.50;;;2.40;;
38487;SDS011;57384;51.986;4.458;2023-09-19T03:57:27;2.55;;;2.45;;
38487;SDS011;57384;51.986;4.458;2023-09-19T03:59:53;2.30;;;2.20;;
38487;SDS011;57384;51.986;4.458;2023-09-19T04:02:20;1.77;;;1.67;;
38487;SDS011;57384;51.986;4.458;2023-09-19T04:04:46;2.70;;;2.50;;
38487;SDS011;57384;51.986;4.458;2023-09-19T04:07:16;2.22;;;2.13;;
38487;SDS011;57384;51.986;4.458;2023-09-19T04:09:44;2.25;;;2.15;;
38487;SDS011;57384;51.986;4.458;2023-09-19T04:12:10;2.40;;;2.30;;
38487;SDS011;57384;51.986;4.458;2023-09-19T04:14:37;3.73;;;3.37;;
38487;SDS011;57384;51.986;4.458;2023-09-19T04:17:06;2.17;;;2.08;;
38487;SDS011;57384;51.986;4.458;2023-09-19T04:19:33;2.15;;;2.05;;
38487;SDS011;57384;51.986;4.458;2023-09-19T04:22:00;4.55;;;3.47;;
38487;SDS011;57384;51.986;4.458;2023-09-19T04:24:26;2.70;;;2.60;;
38487;SDS011;57384;51.986;4.458;2023-09-19T04:26:55;3.30;;;3.00;;
38487;SDS011;57384;51.986;4.458;2023-09-19T04:29:22;2.67;;;2.58;;
38487;SDS011;57384;51.986;4.458;2023-09-19T04:31:49;2.93;;;2.73;;
38487;SDS011;57384;51.986;4.458;2023-09-19T04:34:15;2.97;;;2.87;;
38487;SDS011;57384;51.986;4.458;2023-09-19T04:36:42;4.10;;;3.83;;
38487;SDS011;57384;51.986;4.458;2023-09-19T04:39:09;2.53;;;2.42;;
38487;SDS011;57384;51.986;4.458;2023-09-19T04:41:36;1.93;;;1.83;;
38487;SDS011;57384;51.986;4.458;2023-09-19T04:44:02;3.50;;;3.40;;
38487;SDS011;57384;51.986;4.458;2023-09-19T04:46:29;2.50;;;2.40;;
38487;SDS011;57384;51.986;4.458;2023-09-19T04:48:56;2.63;;;2.53;;
38487;SDS011;57384;51.986;4.458;2023-09-19T04:51:22;2.53;;;2.42;;
38487;SDS011;57384;51.986;4.458;2023-09-19T04:53:49;3.40;;;3.17;;
38487;SDS011;57384;51.986;4.458;2023-09-19T04:56:15;4.88;;;4.30;;
38487;SDS011;57384;51.986;4.458;2023-09-19T04:58:42;2.97;;;2.87;;
38487;SDS011;57384;51.986;4.458;2023-09-19T05:01:08;2.20;;;2.10;;
38487;SDS011;57384;51.986;4.458;2023-09-19T05:03:35;2.70;;;2.60;;
38487;SDS011;57384;51.986;4.458;2023-09-19T05:06:02;2.78;;;2.67;;
38487;SDS011;57384;51.986;4.458;2023-09-19T05:08:31;3.30;;;3.10;;
38487;SDS011;57384;51.986;4.458;2023-09-19T05:10:57;2.90;;;2.80;;
38487;SDS011;57384;51.986;4.458;2023-09-19T05:13:30;3.40;;;3.10;;
38487;SDS011;57384;51.986;4.458;2023-09-19T05:15:59;2.63;;;2.53;;
38487;SDS011;57384;51.986;4.458;2023-09-19T05:18:26;3.05;;;2.95;;
38487;SDS011;57384;51.986;4.458;2023-09-19T05:20:53;2.15;;;2.05;;
38487;SDS011;57384;51.986;4.458;2023-09-19T05:23:27;2.20;;;2.10;;
38487;SDS011;57384;51.986;4.458;2023-09-19T05:25:54;2.60;;;2.50;;
38487;SDS011;57384;51.986;4.458;2023-09-19T05:28:20;2.40;;;2.30;;
38487;SDS011;57384;51.986;4.458;2023-09-19T05:30:47;3.90;;;3.57;;
38487;SDS011;57384;51.986;4.458;2023-09-19T05:33:13;2.20;;;2.10;;
38487;SDS011;57384;51.986;4.458;2023-09-19T05:35:40;2.57;;;2.47;;
38487;SDS011;57384;51.986;4.458;2023-09-19T05:38:07;2.73;;;2.63;;
38487;SDS011;57384;51.986;4.458;2023-09-19T05:40:34;2.58;;;2.47;;
38487;SDS011;57384;51.986;4.458;2023-09-19T05:43:01;3.42;;;3.25;;
38487;SDS011;57384;51.986;4.458;2023-09-19T05:45:27;3.67;;;3.22;;
38487;SDS011;57384;51.986;4.458;2023-09-19T05:48:06;2.87;;;2.77;;
38487;SDS011;57384;51.986;4.458;2023-09-19T05:50:37;2.88;;;2.78;;
38487;SDS011;57384;51.986;4.458;2023-09-19T05:53:04;2.30;;;2.20;;
38487;SDS011;57384;51.986;4.458;2023-09-19T05:55:31;3.35;;;3.17;;
38487;SDS011;57384;51.986;4.458;2023-09-19T05:57:58;4.90;;;4.38;;
38487;SDS011;57384;51.986;4.458;2023-09-19T06:00:25;2.90;;;2.80;;
38487;SDS011;57384;51.986;4.458;2023-09-19T06:02:55;2.63;;;2.53;;
38487;SDS011;57384;51.986;4.458;2023-09-19T06:05:24;3.60;;;3.40;;
38487;SDS011;57384;51.986;4.458;2023-09-19T06:07:51;3.40;;;3.20;;
38487;SDS011;57384;51.986;4.458;2023-09-19T06:10:18;3.53;;;3.33;;
38487;SDS011;57384;51.986;4.458;2023-09-19T06:12:45;3.60;;;3.40;;
38487;SDS011;57384;51.986;4.458;2023-09-19T06:15:13;2.90;;;2.80;;
38487;SDS011;57384;51.986;4.458;2023-09-19T06:20:08;2.80;;;2.70;;
38487;SDS011;57384;51.986;4.458;2023-09-19T06:22:34;3.20;;;3.10;;
38487;SDS011;57384;51.986;4.458;2023-09-19T06:25:01;4.43;;;4.13;;
38487;SDS011;57384;51.986;4.458;2023-09-19T06:27:27;3.97;;;3.77;;
38487;SDS011;57384;51.986;4.458;2023-09-19T06:29:54;2.97;;;2.88;;
38487;SDS011;57384;51.986;4.458;2023-09-19T06:32:26;4.73;;;4.43;;
38487;SDS011;57384;51.986;4.458;2023-09-19T06:34:53;3.28;;;3.17;;
38487;SDS011;57384;51.986;4.458;2023-09-19T06:37:20;4.30;;;4.10;;
38487;SDS011;57384;51.986;4.458;2023-09-19T06:39:47;2.88;;;2.78;;
38487;SDS011;57384;51.986;4.458;2023-09-19T06:42:14;4.30;;;4.10;;
38487;SDS011;57384;51.986;4.458;2023-09-19T06:44:40;15.13;;;4.10;;
38487;SDS011;57384;51.986;4.458;2023-09-19T06:47:06;3.37;;;3.27;;
38487;SDS011;57384;51.986;4.458;2023-09-19T06:49:33;4.30;;;4.00;;
38487;SDS011;57384;51.986;4.458;2023-09-19T06:52:00;3.45;;;3.35;;
38487;SDS011;57384;51.986;4.458;2023-09-19T06:54:26;4.13;;;4.03;;
38487;SDS011;57384;51.986;4.458;2023-09-19T06:56:53;3.53;;;3.38;;
38487;SDS011;57384;51.986;4.458;2023-09-19T06:59:19;3.70;;;3.60;;
38487;SDS011;57384;51.986;4.458;2023-09-19T07:01:46;3.65;;;3.55;;
38487;SDS011;57384;51.986;4.458;2023-09-19T07:04:12;4.18;;;3.97;;
38487;SDS011;57384;51.986;4.458;2023-09-19T07:06:38;7.00;;;4.20;;
38487;SDS011;57384;51.986;4.458;2023-09-19T07:09:05;5.40;;;5.10;;
38487;SDS011;57384;51.986;4.458;2023-09-19T07:11:31;3.63;;;3.53;;
38487;SDS011;57384;51.986;4.458;2023-09-19T07:13:58;12.77;;;3.90;;
38487;SDS011;57384;51.986;4.458;2023-09-19T07:16:25;3.97;;;3.88;;
38487;SDS011;57384;51.986;4.458;2023-09-19T07:18:54;4.15;;;3.95;;
38487;SDS011;57384;51.986;4.458;2023-09-19T07:21:20;3.75;;;3.55;;
38487;SDS011;57384;51.986;4.458;2023-09-19T07:23:47;5.47;;;5.13;;
38487;SDS011;57384;51.986;4.458;2023-09-19T07:26:14;6.78;;;3.63;;
38487;SDS011;57384;51.986;4.458;2023-09-19T07:28:40;5.30;;;5.10;;
38487;SDS011;57384;51.986;4.458;2023-09-19T07:31:07;3.97;;;3.88;;
38487;SDS011;57384;51.986;4.458;2023-09-19T07:33:34;4.43;;;4.22;;
38487;SDS011;57384;51.986;4.458;2023-09-19T07:36:00;4.13;;;3.93;;
38487;SDS011;57384;51.986;4.458;2023-09-19T07:38:27;3.53;;;3.42;;
38487;SDS011;57384;51.986;4.458;2023-09-19T07:40:59;3.80;;;3.60;;
38487;SDS011;57384;51.986;4.458;2023-09-19T07:43:26;3.63;;;3.53;;
38487;SDS011;57384;51.986;4.458;2023-09-19T07:45:53;11.73;;;5.83;;
38487;SDS011;57384;51.986;4.458;2023-09-19T07:48:19;2.97;;;2.87;;
38487;SDS011;57384;51.986;4.458;2023-09-19T07:50:46;3.37;;;3.27;;
38487;SDS011;57384;51.986;4.458;2023-09-19T07:53:15;3.42;;;3.33;;
38487;SDS011;57384;51.986;4.458;2023-09-19T07:55:41;4.63;;;4.43;;
38487;SDS011;57384;51.986;4.458;2023-09-19T07:58:09;3.50;;;3.40;;
38487;SDS011;57384;51.986;4.458;2023-09-19T08:00:39;4.65;;;4.32;;
38487;SDS011;57384;51.986;4.458;2023-09-19T08:03:05;4.60;;;4.30;;
38487;SDS011;57384;51.986;4.458;2023-09-19T08:05:32;2.80;;;2.70;;
38487;SDS011;57384;51.986;4.458;2023-09-19T08:07:58;3.33;;;3.13;;
38487;SDS011;57384;51.986;4.458;2023-09-19T08:10:25;6.00;;;4.37;;
38487;SDS011;57384;51.986;4.458;2023-09-19T08:12:51;3.87;;;3.60;;
38487;SDS011;57384;51.986;4.458;2023-09-19T08:15:18;5.15;;;4.88;;
38487;SDS011;57384;51.986;4.458;2023-09-19T08:17:46;4.15;;;3.95;;
38487;SDS011;57384;51.986;4.458;2023-09-19T08:20:13;4.25;;;4.13;;
38487;SDS011;57384;51.986;4.458;2023-09-19T08:22:40;4.50;;;4.20;;
38487;SDS011;57384;51.986;4.458;2023-09-19T08:25:06;4.43;;;4.23;;
38487;SDS011;57384;51.986;4.458;2023-09-19T08:27:33;3.97;;;3.80;;
38487;SDS011;57384;51.986;4.458;2023-09-19T08:29:59;4.53;;;4.33;;
38487;SDS011;57384;51.986;4.458;2023-09-19T08:32:26;3.83;;;3.73;;
38487;SDS011;57384;51.986;4.458;2023-09-19T08:34:54;4.55;;;4.38;;
38487;SDS011;57384;51.986;4.458;2023-09-19T08:37:20;4.13;;;3.92;;
38487;SDS011;57384;51.986;4.458;2023-09-19T08:39:47;3.80;;;3.70;;
38487;SDS011;57384;51.986;4.458;2023-09-19T08:42:13;4.93;;;4.73;;
38487;SDS011;57384;51.986;4.458;2023-09-19T08:44:40;3.97;;;3.77;;
38487;SDS011;57384;51.986;4.458;2023-09-19T08:47:11;4.17;;;4.07;;
38487;SDS011;57384;51.986;4.458;2023-09-19T08:49:41;3.30;;;3.20;;
38487;SDS011;57384;51.986;4.458;2023-09-19T08:52:41;2.47;;;2.38;;
38487;SDS011;57384;51.986;4.458;2023-09-19T08:55:11;2.67;;;2.58;;
38487;SDS011;57384;51.986;4.458;2023-09-19T08:57:39;4.63;;;3.53;;
38487;SDS011;57384;51.986;4.458;2023-09-19T09:00:08;2.92;;;2.72;;
38487;SDS011;57384;51.986;4.458;2023-09-19T09:05:05;3.05;;;2.85;;
38487;SDS011;57384;51.986;4.458;2023-09-19T09:07:33;3.55;;;3.35;;
38487;SDS011;57384;51.986;4.458;2023-09-19T09:10:00;2.55;;;2.42;;
38487;SDS011;57384;51.986;4.458;2023-09-19T09:12:29;3.25;;;2.95;;
38487;SDS011;57384;51.986;4.458;2023-09-19T09:14:56;2.20;;;2.10;;
38487;SDS011;57384;51.986;4.458;2023-09-19T09:17:23;2.80;;;2.70;;
38487;SDS011;57384;51.986;4.458;2023-09-19T09:19:52;3.15;;;3.05;;
38487;SDS011;57384;51.986;4.458;2023-09-19T09:22:19;3.15;;;2.90;;
38487;SDS011;57384;51.986;4.458;2023-09-19T09:27:22;2.53;;;2.42;;
38487;SDS011;57384;51.986;4.458;2023-09-19T09:29:48;2.05;;;1.95;;
38487;SDS011;57384;51.986;4.458;2023-09-19T09:32:30;2.22;;;2.13;;
38487;SDS011;57384;51.986;4.458;2023-09-19T09:34:57;4.82;;;2.75;;
38487;SDS011;57384;51.986;4.458;2023-09-19T09:37:26;2.78;;;2.67;;
38487;SDS011;57384;51.986;4.458;2023-09-19T09:39:54;2.38;;;2.28;;
38487;SDS011;57384;51.986;4.458;2023-09-19T09:42:29;2.85;;;2.65;;
38487;SDS011;57384;51.986;4.458;2023-09-19T09:47:43;2.90;;;2.80;;
38487;SDS011;57384;51.986;4.458;2023-09-19T09:50:13;2.92;;;2.83;;
38487;SDS011;57384;51.986;4.458;2023-09-19T09:52:49;2.58;;;2.47;;
38487;SDS011;57384;51.986;4.458;2023-09-19T09:55:16;2.30;;;2.20;;
38487;SDS011;57384;51.986;4.458;2023-09-19T09:57:42;4.05;;;3.85;;
38487;SDS011;57384;51.986;4.458;2023-09-19T10:00:09;3.42;;;3.22;;
38487;SDS011;57384;51.986;4.458;2023-09-19T10:05:13;3.05;;;2.95;;
38487;SDS011;57384;51.986;4.458;2023-09-19T10:07:40;2.95;;;2.85;;
38487;SDS011;57384;51.986;4.458;2023-09-19T10:10:07;2.90;;;2.80;;
38487;SDS011;57384;51.986;4.458;2023-09-19T10:12:34;3.15;;;3.05;;
38487;SDS011;57384;51.986;4.458;2023-09-19T10:15:06;3.05;;;2.95;;
38487;SDS011;57384;51.986;4.458;2023-09-19T10:17:34;3.53;;;3.42;;
38487;SDS011;57384;51.986;4.458;2023-09-19T10:20:02;3.70;;;3.50;;
38487;SDS011;57384;51.986;4.458;2023-09-19T10:22:29;3.33;;;3.22;;
38487;SDS011;57384;51.986;4.458;2023-09-19T10:24:57;4.13;;;3.92;;
38487;SDS011;57384;51.986;4.458;2023-09-19T10:27:28;3.20;;;3.10;;
38487;SDS011;57384;51.986;4.458;2023-09-19T10:29:56;4.20;;;3.72;;
38487;SDS011;57384;51.986;4.458;2023-09-19T10:32:24;3.33;;;3.22;;
38487;SDS011;57384;51.986;4.458;2023-09-19T10:34:53;4.68;;;4.38;;
38487;SDS011;57384;51.986;4.458;2023-09-19T10:37:21;3.78;;;3.67;;
38487;SDS011;57384;51.986;4.458;2023-09-19T10:39:51;7.20;;;3.70;;
38487;SDS011;57384;51.986;4.458;2023-09-19T10:42:20;4.05;;;3.95;;
38487;SDS011;57384;51.986;4.458;2023-09-19T10:44:51;4.93;;;4.63;;
38487;SDS011;57384;51.986;4.458;2023-09-19T10:47:18;4.40;;;4.30;;
38487;SDS011;57384;51.986;4.458;2023-09-19T10:49:45;4.47;;;4.28;;
38487;SDS011;57384;51.986;4.458;2023-09-19T10:52:16;4.75;;;4.45;;
38487;SDS011;57384;51.986;4.458;2023-09-19T10:54:47;3.88;;;3.78;;
38487;SDS011;57384;51.986;4.458;2023-09-19T10:57:19;3.92;;;3.83;;
38487;SDS011;57384;51.986;4.458;2023-09-19T11:00:04;5.40;;;5.13;;
38487;SDS011;57384;51.986;4.458;2023-09-19T11:02:34;3.88;;;3.78;;
38487;SDS011;57384;51.986;4.458;2023-09-19T11:05:11;4.25;;;4.15;;
38487;SDS011;57384;51.986;4.458;2023-09-19T11:07:57;4.15;;;3.95;;
38487;SDS011;57384;51.986;4.458;2023-09-19T11:10:43;4.15;;;4.05;;
38487;SDS011;57384;51.986;4.458;2023-09-19T11:21:51;4.22;;;4.13;;
38487;SDS011;57384;51.986;4.458;2023-09-19T11:29:37;4.82;;;4.63;;
38487;SDS011;57384;51.986;4.458;2023-09-19T11:32:06;4.43;;;4.32;;
38487;SDS011;57384;51.986;4.458;2023-09-19T11:48:07;5.07;;;4.88;;
38487;SDS011;57384;51.986;4.458;2023-09-19T11:50:35;5.72;;;5.43;;
38487;SDS011;57384;51.986;4.458;2023-09-19T11:53:09;6.05;;;5.65;;
38487;SDS011;57384;51.986;4.458;2023-09-19T11:55:38;4.78;;;4.68;;
38487;SDS011;57384;51.986;4.458;2023-09-19T11:58:06;5.05;;;4.85;;
38487;SDS011;57384;51.986;4.458;2023-09-19T12:00:34;5.13;;;4.93;;
38487;SDS011;57384;51.986;4.458;2023-09-19T12:03:05;4.32;;;4.22;;
38487;SDS011;57384;51.986;4.458;2023-09-19T12:05:37;4.30;;;4.20;;
38487;SDS011;57384;51.986;4.458;2023-09-19T12:08:05;4.65;;;4.55;;
38487;SDS011;57384;51.986;4.458;2023-09-19T12:10:31;7.07;;;6.28;;
38487;SDS011;57384;51.986;4.458;2023-09-19T12:12:58;4.10;;;4.00;;
38487;SDS011;57384;51.986;4.458;2023-09-19T12:15:25;4.47;;;4.38;;
38487;SDS011;57384;51.986;4.458;2023-09-19T12:17:53;4.40;;;4.20;;
38487;SDS011;57384;51.986;4.458;2023-09-19T12:20:20;4.75;;;4.55;;
38487;SDS011;57384;51.986;4.458;2023-09-19T12:22:47;4.85;;;4.55;;
38487;SDS011;57384;51.986;4.458;2023-09-19T12:25:13;4.75;;;4.60;;
38487;SDS011;57384;51.986;4.458;2023-09-19T12:27:44;5.40;;;5.20;;
38487;SDS011;57384;51.986;4.458;2023-09-19T12:30:11;4.03;;;3.92;;
38487;SDS011;57384;51.986;4.458;2023-09-19T12:32:38;5.35;;;5.15;;
38487;SDS011;57384;51.986;4.458;2023-09-19T12:35:06;4.68;;;4.57;;
38487;SDS011;57384;51.986;4.458;2023-09-19T12:37:33;4.32;;;4.22;;
38487;SDS011;57384;51.986;4.458;2023-09-19T12:40:06;5.28;;;5.07;;
38487;SDS011;57384;51.986;4.458;2023-09-19T12:42:34;5.15;;;4.95;;
38487;SDS011;57384;51.986;4.458;2023-09-19T12:45:01;4.68;;;4.57;;
38487;SDS011;57384;51.986;4.458;2023-09-19T12:47:32;7.90;;;6.13;;
38487;SDS011;57384;51.986;4.458;2023-09-19T12:52:35;5.50;;;5.30;;
38487;SDS011;57384;51.986;4.458;2023-09-19T12:55:06;13.20;;;5.80;;
38487;SDS011;57384;51.986;4.458;2023-09-19T12:57:33;4.68;;;4.57;;
38487;SDS011;57384;51.986;4.458;2023-09-19T13:00:03;3.97;;;3.88;;
38487;SDS011;57384;51.986;4.458;2023-09-19T13:02:31;6.25;;;6.05;;
38487;SDS011;57384;51.986;4.458;2023-09-19T13:04:58;5.53;;;5.22;;
38487;SDS011;57384;51.986;4.458;2023-09-19T13:07:40;6.53;;;6.22;;
38487;SDS011;57384;51.986;4.458;2023-09-19T13:10:07;5.28;;;5.07;;
38487;SDS011;57384;51.986;4.458;2023-09-19T13:12:34;5.05;;;4.85;;
38487;SDS011;57384;51.986;4.458;2023-09-19T13:15:11;4.80;;;4.70;;
38487;SDS011;57384;51.986;4.458;2023-09-19T13:17:42;5.32;;;5.13;;
38487;SDS011;57384;51.986;4.458;2023-09-19T13:20:20;5.63;;;5.43;;
38487;SDS011;57384;51.986;4.458;2023-09-19T13:22:47;4.90;;;4.72;;
38487;SDS011;57384;51.986;4.458;2023-09-19T13:25:18;11.43;;;6.15;;
38487;SDS011;57384;51.986;4.458;2023-09-19T13:27:45;5.40;;;5.20;;
38487;SDS011;57384;51.986;4.458;2023-09-19T13:30:13;5.85;;;5.65;;
38487;SDS011;57384;51.986;4.458;2023-09-19T13:35:07;6.65;;;6.45;;
38487;SDS011;57384;51.986;4.458;2023-09-19T13:37:34;6.95;;;6.70;;
38487;SDS011;57384;51.986;4.458;2023-09-19T13:42:27;5.60;;;5.40;;
38487;SDS011;57384;51.986;4.458;2023-09-19T13:44:54;5.93;;;5.72;;
38487;SDS011;57384;51.986;4.458;2023-09-19T13:49:47;6.50;;;6.30;;
38487;SDS011;57384;51.986;4.458;2023-09-19T13:52:14;5.47;;;5.28;;
38487;SDS011;57384;51.986;4.458;2023-09-19T13:54:40;6.47;;;6.28;;
38487;SDS011;57384;51.986;4.458;2023-09-19T13:57:07;6.15;;;5.95;;
38487;SDS011;57384;51.986;4.458;2023-09-19T13:59:33;7.35;;;7.10;;
38487;SDS011;57384;51.986;4.458;2023-09-19T14:02:00;6.45;;;6.25;;
38487;SDS011;57384;51.986;4.458;2023-09-19T14:04:27;6.07;;;5.88;;
38487;SDS011;57384;51.986;4.458;2023-09-19T14:06:53;4.53;;;4.43;;
38487;SDS011;57384;51.986;4.458;2023-09-19T14:09:20;4.15;;;3.95;;
38487;SDS011;57384;51.986;4.458;2023-09-19T14:11:48;3.28;;;3.17;;
38487;SDS011;57384;51.986;4.458;2023-09-19T14:14:14;3.42;;;3.33;;
38487;SDS011;57384;51.986;4.458;2023-09-19T14:16:41;3.47;;;3.38;;
38487;SDS011;57384;51.986;4.458;2023-09-19T14:19:07;3.15;;;3.05;;
38487;SDS011;57384;51.986;4.458;2023-09-19T14:21:34;4.15;;;3.75;;
38487;SDS011;57384;51.986;4.458;2023-09-19T14:24:00;3.85;;;3.65;;
38487;SDS011;57384;51.986;4.458;2023-09-19T14:26:27;4.20;;;3.90;;
38487;SDS011;57384;51.986;4.458;2023-09-19T14:28:53;3.40;;;3.30;;
38487;SDS011;57384;51.986;4.458;2023-09-19T14:31:23;3.88;;;3.60;;
38487;SDS011;57384;51.986;4.458;2023-09-19T14:33:55;3.15;;;3.05;;
38487;SDS011;57384;51.986;4.458;2023-09-19T14:36:22;3.92;;;3.83;;
38487;SDS011;57384;51.986;4.458;2023-09-19T14:38:51;4.70;;;4.40;;
38487;SDS011;57384;51.986;4.458;2023-09-19T14:41:19;5.15;;;4.70;;
38487;SDS011;57384;51.986;4.458;2023-09-19T14:43:45;3.92;;;3.83;;
38487;SDS011;57384;51.986;4.458;2023-09-19T14:46:12;3.75;;;3.65;;
38487;SDS011;57384;51.986;4.458;2023-09-19T14:48:38;6.20;;;5.88;;
38487;SDS011;57384;51.986;4.458;2023-09-19T14:51:05;4.70;;;4.53;;
38487;SDS011;57384;51.986;4.458;2023-09-19T14:53:33;4.40;;;4.28;;
38487;SDS011;57384;51.986;4.458;2023-09-19T14:56:00;3.55;;;3.45;;
38487;SDS011;57384;51.986;4.458;2023-09-19T14:58:27;3.75;;;3.65;;
38487;SDS011;57384;51.986;4.458;2023-09-19T15:00:54;4.63;;;4.43;;
38487;SDS011;57384;51.986;4.458;2023-09-19T15:03:27;3.72;;;3.63;;
38487;SDS011;57384;51.986;4.458;2023-09-19T15:05:58;4.53;;;4.32;;
38487;SDS011;57384;51.986;4.458;2023-09-19T15:08:25;5.38;;;5.00;;
38487;SDS011;57384;51.986;4.458;2023-09-19T15:10:52;4.60;;;4.35;;
38487;SDS011;57384;51.986;4.458;2023-09-19T15:13:19;3.58;;;3.47;;
38487;SDS011;57384;51.986;4.458;2023-09-19T15:15:45;4.72;;;4.50;;
38487;SDS011;57384;51.986;4.458;2023-09-19T15:18:12;4.85;;;4.63;;
38487;SDS011;57384;51.986;4.458;2023-09-19T15:20:47;4.72;;;4.53;;
38487;SDS011;57384;51.986;4.458;2023-09-19T15:23:14;4.90;;;4.60;;
38487;SDS011;57384;51.986;4.458;2023-09-19T15:25:45;4.78;;;4.57;;
38487;SDS011;57384;51.986;4.458;2023-09-19T15:28:14;5.05;;;4.85;;
38487;SDS011;57384;51.986;4.458;2023-09-19T15:30:40;3.38;;;3.28;;
38487;SDS011;57384;51.986;4.458;2023-09-19T15:33:07;4.70;;;4.30;;
38487;SDS011;57384;51.986;4.458;2023-09-19T15:35:33;3.03;;;2.92;;
38487;SDS011;57384;51.986;4.458;2023-09-19T15:38:00;3.25;;;3.15;;
38487;SDS011;57384;51.986;4.458;2023-09-19T15:40:26;3.67;;;3.47;;
38487;SDS011;57384;51.986;4.458;2023-09-19T15:42:56;3.58;;;3.47;;
38487;SDS011;57384;51.986;4.458;2023-09-19T15:45:24;3.28;;;3.17;;
38487;SDS011;57384;51.986;4.458;2023-09-19T15:47:50;3.00;;;2.90;;
38487;SDS011;57384;51.986;4.458;2023-09-19T15:50:17;3.13;;;3.03;;
38487;SDS011;57384;51.986;4.458;2023-09-19T15:52:44;2.70;;;2.60;;
38487;SDS011;57384;51.986;4.458;2023-09-19T15:55:10;3.25;;;3.15;;
38487;SDS011;57384;51.986;4.458;2023-09-19T15:57:37;3.10;;;3.00;;
38487;SDS011;57384;51.986;4.458;2023-09-19T16:00:06;3.30;;;3.10;;
38487;SDS011;57384;51.986;4.458;2023-09-19T16:02:32;3.25;;;3.15;;
38487;SDS011;57384;51.986;4.458;2023-09-19T16:04:59;4.47;;;4.28;;
38487;SDS011;57384;51.986;4.458;2023-09-19T16:07:25;2.75;;;2.65;;
38487;SDS011;57384;51.986;4.458;2023-09-19T16:09:52;3.10;;;3.00;;
38487;SDS011;57384;51.986;4.458;2023-09-19T16:12:21;2.28;;;2.17;;